sensor_id;sensor_type;location;lat;lon;timestamp;temperature;humidity
64987;DHT22;67903;52.108;9.358;2023-04-28T00:01:34;8.00;52.30
64987;DHT22;67903;52.108;9.358;2023-04-28T00:04:21;8.00;52.30
64987;DHT22;67903;52.108;9.358;2023-04-28T00:07:09;8.00;52.30
64987;DHT22;67903;52.108;9.358;2023-04-28T00:09:56;8.10;52.40
64987;DHT22;67903;52.108;9.358;2023-04-28T00:12:43;8.10;52.20
64987;DHT22;67903;52.108;9.358;2023-04-28T00:15:30;8.10;52.30
64987;DHT22;67903;52.108;9.358;2023-04-28T00:18:20;8.20;52.20
64987;DHT22;67903;52.108;9.358;2023-04-28T00:21:08;8.20;52.10
64987;DHT22;67903;52.108;9.358;2023-04-28T00:23:55;8.20;51.70
64987;DHT22;67903;52.108;9.358;2023-04-28T00:26:42;8.30;52.00
64987;DHT22;67903;52.108;9.358;2023-04-28T00:29:29;8.30;52.10
64987;DHT22;67903;52.108;9.358;2023-04-28T00:32:16;8.30;51.80
64987;DHT22;67903;52.108;9.358;2023-04-28T00:35:04;8.30;51.90
64987;DHT22;67903;52.108;9.358;2023-04-28T00:37:51;8.30;52.00
64987;DHT22;67903;52.108;9.358;2023-04-28T00:40:39;8.30;52.00
64987;DHT22;67903;52.108;9.358;2023-04-28T00:43:26;8.30;51.90
64987;DHT22;67903;52.108;9.358;2023-04-28T00:46:20;8.30;52.00
64987;DHT22;67903;52.108;9.358;2023-04-28T00:49:08;8.30;52.10
64987;DHT22;67903;52.108;9.358;2023-04-28T00:51:56;8.30;52.00
64987;DHT22;67903;52.108;9.358;2023-04-28T00:54:44;8.30;52.10
64987;DHT22;67903;52.108;9.358;2023-04-28T00:57:34;8.30;52.00
64987;DHT22;67903;52.108;9.358;2023-04-28T01:00:21;8.30;52.00
64987;DHT22;67903;52.108;9.358;2023-04-28T01:03:08;8.30;51.80
64987;DHT22;67903;52.108;9.358;2023-04-28T01:05:56;8.30;52.00
64987;DHT22;67903;52.108;9.358;2023-04-28T01:08:47;8.30;52.00
64987;DHT22;67903;52.108;9.358;2023-04-28T01:11:35;8.30;52.10
64987;DHT22;67903;52.108;9.358;2023-04-28T01:14:27;8.30;52.10
64987;DHT22;67903;52.108;9.358;2023-04-28T01:17:14;8.30;52.00
64987;DHT22;67903;52.108;9.358;2023-04-28T01:20:02;8.30;51.90
64987;DHT22;67903;52.108;9.358;2023-04-28T01:22:50;8.20;52.20
64987;DHT22;67903;52.108;9.358;2023-04-28T01:25:39;8.30;52.20
64987;DHT22;67903;52.108;9.358;2023-04-28T01:28:26;8.30;52.60
64987;DHT22;67903;52.108;9.358;2023-04-28T01:31:14;8.30;52.20
64987;DHT22;67903;52.108;9.358;2023-04-28T01:34:01;8.30;52.10
64987;DHT22;67903;52.108;9.358;2023-04-28T01:36:48;8.20;52.20
64987;DHT22;67903;52.108;9.358;2023-04-28T01:39:35;8.20;52.50
64987;DHT22;67903;52.108;9.358;2023-04-28T01:42:22;8.20;52.60
64987;DHT22;67903;52.108;9.358;2023-04-28T01:45:10;8.20;53.00
64987;DHT22;67903;52.108;9.358;2023-04-28T01:47:57;8.20;52.80
64987;DHT22;67903;52.108;9.358;2023-04-28T01:50:44;8.10;52.90
64987;DHT22;67903;52.108;9.358;2023-04-28T01:53:32;8.20;52.90
64987;DHT22;67903;52.108;9.358;2023-04-28T01:56:19;8.20;53.10
64987;DHT22;67903;52.108;9.358;2023-04-28T01:59:08;8.10;52.90
64987;DHT22;67903;52.108;9.358;2023-04-28T02:01:56;8.10;53.10
64987;DHT22;67903;52.108;9.358;2023-04-28T02:04:43;8.10;53.10
64987;DHT22;67903;52.108;9.358;2023-04-28T02:07:30;8.10;53.20
64987;DHT22;67903;52.108;9.358;2023-04-28T02:10:17;8.10;53.20
64987;DHT22;67903;52.108;9.358;2023-04-28T02:13:04;8.10;53.40
64987;DHT22;67903;52.108;9.358;2023-04-28T02:15:51;8.10;53.30
64987;DHT22;67903;52.108;9.358;2023-04-28T02:18:40;8.10;53.30
64987;DHT22;67903;52.108;9.358;2023-04-28T02:21:27;8.10;53.40
64987;DHT22;67903;52.108;9.358;2023-04-28T02:24:14;8.10;53.50
64987;DHT22;67903;52.108;9.358;2023-04-28T02:27:03;8.10;53.40
64987;DHT22;67903;52.108;9.358;2023-04-28T02:29:51;8.10;53.60
64987;DHT22;67903;52.108;9.358;2023-04-28T02:32:38;8.00;53.70
64987;DHT22;67903;52.108;9.358;2023-04-28T02:35:26;8.00;53.70
64987;DHT22;67903;52.108;9.358;2023-04-28T02:38:14;8.00;53.60
64987;DHT22;67903;52.108;9.358;2023-04-28T02:41:06;8.00;53.70
64987;DHT22;67903;52.108;9.358;2023-04-28T02:43:55;8.00;53.60
64987;DHT22;67903;52.108;9.358;2023-04-28T02:46:42;8.00;53.40
64987;DHT22;67903;52.108;9.358;2023-04-28T02:49:30;8.00;53.60
64987;DHT22;67903;52.108;9.358;2023-04-28T02:52:17;8.00;53.60
64987;DHT22;67903;52.108;9.358;2023-04-28T02:55:04;8.00;53.60
64987;DHT22;67903;52.108;9.358;2023-04-28T02:57:52;8.00;53.60
64987;DHT22;67903;52.108;9.358;2023-04-28T03:00:39;8.00;53.60
64987;DHT22;67903;52.108;9.358;2023-04-28T03:03:26;8.00;53.60
64987;DHT22;67903;52.108;9.358;2023-04-28T03:06:13;8.00;53.60
64987;DHT22;67903;52.108;9.358;2023-04-28T03:09:00;8.00;53.80
64987;DHT22;67903;52.108;9.358;2023-04-28T03:11:48;7.90;54.00
64987;DHT22;67903;52.108;9.358;2023-04-28T03:14:35;7.90;54.00
64987;DHT22;67903;52.108;9.358;2023-04-28T03:17:22;7.90;54.00
64987;DHT22;67903;52.108;9.358;2023-04-28T03:20:10;7.90;53.80
64987;DHT22;67903;52.108;9.358;2023-04-28T03:22:57;7.90;53.90
64987;DHT22;67903;52.108;9.358;2023-04-28T03:25:44;7.90;54.20
64987;DHT22;67903;52.108;9.358;2023-04-28T03:28:32;8.00;54.00
64987;DHT22;67903;52.108;9.358;2023-04-28T03:31:20;8.00;54.20
64987;DHT22;67903;52.108;9.358;2023-04-28T03:34:07;8.00;53.60
64987;DHT22;67903;52.108;9.358;2023-04-28T03:36:55;8.00;53.60
64987;DHT22;67903;52.108;9.358;2023-04-28T03:39:47;8.00;53.70
64987;DHT22;67903;52.108;9.358;2023-04-28T03:42:35;8.10;53.50
64987;DHT22;67903;52.108;9.358;2023-04-28T03:45:30;8.10;53.30
64987;DHT22;67903;52.108;9.358;2023-04-28T03:48:17;8.10;53.40
64987;DHT22;67903;52.108;9.358;2023-04-28T03:51:05;8.10;53.70
64987;DHT22;67903;52.108;9.358;2023-04-28T03:53:52;8.10;53.40
64987;DHT22;67903;52.108;9.358;2023-04-28T03:56:39;8.10;53.50
64987;DHT22;67903;52.108;9.358;2023-04-28T03:59:26;8.10;53.40
64987;DHT22;67903;52.108;9.358;2023-04-28T04:02:13;8.10;53.60
64987;DHT22;67903;52.108;9.358;2023-04-28T04:05:00;8.10;53.40
64987;DHT22;67903;52.108;9.358;2023-04-28T04:07:48;8.10;53.40
64987;DHT22;67903;52.108;9.358;2023-04-28T04:10:35;8.10;53.50
64987;DHT22;67903;52.108;9.358;2023-04-28T04:13:22;8.10;53.40
64987;DHT22;67903;52.108;9.358;2023-04-28T04:16:09;8.10;53.60
64987;DHT22;67903;52.108;9.358;2023-04-28T04:18:57;8.10;53.70
64987;DHT22;67903;52.108;9.358;2023-04-28T04:21:53;8.10;53.70
64987;DHT22;67903;52.108;9.358;2023-04-28T04:24:41;8.20;53.80
64987;DHT22;67903;52.108;9.358;2023-04-28T04:27:28;8.20;53.90
64987;DHT22;67903;52.108;9.358;2023-04-28T04:30:15;8.20;54.00
64987;DHT22;67903;52.108;9.358;2023-04-28T04:33:03;8.30;54.00
64987;DHT22;67903;52.108;9.358;2023-04-28T04:35:50;8.30;53.90
64987;DHT22;67903;52.108;9.358;2023-04-28T04:38:37;8.30;53.90
64987;DHT22;67903;52.108;9.358;2023-04-28T04:41:32;8.30;54.10
64987;DHT22;67903;52.108;9.358;2023-04-28T04:44:42;8.30;54.40
64987;DHT22;67903;52.108;9.358;2023-04-28T04:47:37;8.30;54.30
64987;DHT22;67903;52.108;9.358;2023-04-28T04:50:25;8.30;54.20
64987;DHT22;67903;52.108;9.358;2023-04-28T04:53:13;8.30;54.70
64987;DHT22;67903;52.108;9.358;2023-04-28T04:56:04;8.30;54.40
64987;DHT22;67903;52.108;9.358;2023-04-28T04:58:53;8.40;54.10
64987;DHT22;67903;52.108;9.358;2023-04-28T05:02:03;8.40;53.90
64987;DHT22;67903;52.108;9.358;2023-04-28T05:04:50;8.50;53.90
64987;DHT22;67903;52.108;9.358;2023-04-28T05:07:38;8.50;53.80
64987;DHT22;67903;52.108;9.358;2023-04-28T05:10:25;8.50;53.60
64987;DHT22;67903;52.108;9.358;2023-04-28T05:13:13;8.60;53.30
64987;DHT22;67903;52.108;9.358;2023-04-28T05:16:00;8.50;53.30
64987;DHT22;67903;52.108;9.358;2023-04-28T05:19:17;8.50;53.40
64987;DHT22;67903;52.108;9.358;2023-04-28T05:22:04;8.60;53.40
64987;DHT22;67903;52.108;9.358;2023-04-28T05:24:51;8.60;53.30
64987;DHT22;67903;52.108;9.358;2023-04-28T05:27:39;8.60;53.40
64987;DHT22;67903;52.108;9.358;2023-04-28T05:30:28;8.80;53.20
64987;DHT22;67903;52.108;9.358;2023-04-28T05:33:15;8.80;53.30
64987;DHT22;67903;52.108;9.358;2023-04-28T05:36:03;8.80;53.10
64987;DHT22;67903;52.108;9.358;2023-04-28T05:38:50;8.80;53.20
64987;DHT22;67903;52.108;9.358;2023-04-28T05:41:38;8.90;53.10
64987;DHT22;67903;52.108;9.358;2023-04-28T05:44:25;9.00;52.90
64987;DHT22;67903;52.108;9.358;2023-04-28T05:47:12;9.00;52.70
64987;DHT22;67903;52.108;9.358;2023-04-28T05:49:59;9.20;52.50
64987;DHT22;67903;52.108;9.358;2023-04-28T05:52:46;9.20;52.70
64987;DHT22;67903;52.108;9.358;2023-04-28T05:55:34;9.30;52.40
64987;DHT22;67903;52.108;9.358;2023-04-28T05:58:23;9.40;52.40
64987;DHT22;67903;52.108;9.358;2023-04-28T06:01:10;9.40;52.20
64987;DHT22;67903;52.108;9.358;2023-04-28T06:03:58;9.50;52.30
64987;DHT22;67903;52.108;9.358;2023-04-28T06:06:45;9.60;52.40
64987;DHT22;67903;52.108;9.358;2023-04-28T06:09:33;9.80;52.20
64987;DHT22;67903;52.108;9.358;2023-04-28T06:12:20;9.80;51.80
64987;DHT22;67903;52.108;9.358;2023-04-28T06:15:07;10.00;51.20
64987;DHT22;67903;52.108;9.358;2023-04-28T06:17:54;10.00;51.00
64987;DHT22;67903;52.108;9.358;2023-04-28T06:20:41;10.00;51.20
64987;DHT22;67903;52.108;9.358;2023-04-28T06:23:29;10.20;51.10
64987;DHT22;67903;52.108;9.358;2023-04-28T06:26:17;10.10;50.90
64987;DHT22;67903;52.108;9.358;2023-04-28T06:29:04;10.10;50.80
64987;DHT22;67903;52.108;9.358;2023-04-28T06:31:51;10.00;51.10
64987;DHT22;67903;52.108;9.358;2023-04-28T06:34:39;10.30;51.10
64987;DHT22;67903;52.108;9.358;2023-04-28T06:37:26;10.30;50.70
64987;DHT22;67903;52.108;9.358;2023-04-28T06:40:13;10.30;50.50
64987;DHT22;67903;52.108;9.358;2023-04-28T06:43:07;10.30;51.00
64987;DHT22;67903;52.108;9.358;2023-04-28T06:46:02;10.40;50.50
64987;DHT22;67903;52.108;9.358;2023-04-28T06:48:49;10.70;50.30
64987;DHT22;67903;52.108;9.358;2023-04-28T06:51:37;10.70;50.30
64987;DHT22;67903;52.108;9.358;2023-04-28T06:54:24;10.90;49.90
64987;DHT22;67903;52.108;9.358;2023-04-28T06:57:11;10.70;50.00
64987;DHT22;67903;52.108;9.358;2023-04-28T06:59:58;10.70;50.20
64987;DHT22;67903;52.108;9.358;2023-04-28T07:02:45;10.90;50.20
64987;DHT22;67903;52.108;9.358;2023-04-28T07:05:32;10.80;50.30
64987;DHT22;67903;52.108;9.358;2023-04-28T07:08:20;10.80;49.70
64987;DHT22;67903;52.108;9.358;2023-04-28T07:11:07;10.60;50.00
64987;DHT22;67903;52.108;9.358;2023-04-28T07:13:54;10.70;50.10
64987;DHT22;67903;52.108;9.358;2023-04-28T07:16:41;10.80;50.00
64987;DHT22;67903;52.108;9.358;2023-04-28T07:19:29;11.20;50.10
64987;DHT22;67903;52.108;9.358;2023-04-28T07:22:16;11.50;49.60
64987;DHT22;67903;52.108;9.358;2023-04-28T07:25:03;11.50;49.10
64987;DHT22;67903;52.108;9.358;2023-04-28T07:27:51;11.50;49.30
64987;DHT22;67903;52.108;9.358;2023-04-28T07:30:40;11.90;48.80
64987;DHT22;67903;52.108;9.358;2023-04-28T07:33:27;11.80;48.80
64987;DHT22;67903;52.108;9.358;2023-04-28T07:36:14;11.60;49.00
64987;DHT22;67903;52.108;9.358;2023-04-28T07:39:02;11.40;49.70
64987;DHT22;67903;52.108;9.358;2023-04-28T07:41:50;11.50;49.70
64987;DHT22;67903;52.108;9.358;2023-04-28T07:44:37;11.70;49.60
64987;DHT22;67903;52.108;9.358;2023-04-28T07:47:24;11.90;49.70
64987;DHT22;67903;52.108;9.358;2023-04-28T07:50:11;12.00;49.20
64987;DHT22;67903;52.108;9.358;2023-04-28T07:52:58;11.70;49.80
64987;DHT22;67903;52.108;9.358;2023-04-28T07:55:45;11.90;50.10
64987;DHT22;67903;52.108;9.358;2023-04-28T07:58:32;12.20;49.80
64987;DHT22;67903;52.108;9.358;2023-04-28T08:01:19;12.40;49.00
64987;DHT22;67903;52.108;9.358;2023-04-28T08:04:07;12.50;49.30
64987;DHT22;67903;52.108;9.358;2023-04-28T08:06:54;12.00;49.50
64987;DHT22;67903;52.108;9.358;2023-04-28T08:09:42;12.00;49.90
64987;DHT22;67903;52.108;9.358;2023-04-28T08:12:33;12.00;50.00
64987;DHT22;67903;52.108;9.358;2023-04-28T08:15:20;11.70;50.10
64987;DHT22;67903;52.108;9.358;2023-04-28T08:18:07;11.70;50.50
64987;DHT22;67903;52.108;9.358;2023-04-28T08:20:54;11.70;50.80
64987;DHT22;67903;52.108;9.358;2023-04-28T08:23:41;11.90;50.80
64987;DHT22;67903;52.108;9.358;2023-04-28T08:26:29;12.10;50.90
64987;DHT22;67903;52.108;9.358;2023-04-28T08:29:16;12.30;50.20
64987;DHT22;67903;52.108;9.358;2023-04-28T08:32:03;12.20;50.20
64987;DHT22;67903;52.108;9.358;2023-04-28T08:34:52;12.00;50.60
64987;DHT22;67903;52.108;9.358;2023-04-28T08:37:40;11.90;51.00
64987;DHT22;67903;52.108;9.358;2023-04-28T08:40:27;11.90;51.20
64987;DHT22;67903;52.108;9.358;2023-04-28T08:43:15;12.30;51.10
64987;DHT22;67903;52.108;9.358;2023-04-28T08:46:05;12.40;50.70
64987;DHT22;67903;52.108;9.358;2023-04-28T08:48:59;12.50;50.30
64987;DHT22;67903;52.108;9.358;2023-04-28T08:51:55;12.50;50.50
64987;DHT22;67903;52.108;9.358;2023-04-28T08:54:43;12.40;50.70
64987;DHT22;67903;52.108;9.358;2023-04-28T08:57:44;12.60;50.80
64987;DHT22;67903;52.108;9.358;2023-04-28T09:00:32;12.90;50.10
64987;DHT22;67903;52.108;9.358;2023-04-28T09:03:22;12.70;50.40
64987;DHT22;67903;52.108;9.358;2023-04-28T09:06:10;12.50;50.70
64987;DHT22;67903;52.108;9.358;2023-04-28T09:09:26;12.30;51.20
64987;DHT22;67903;52.108;9.358;2023-04-28T09:12:19;12.50;51.40
64987;DHT22;67903;52.108;9.358;2023-04-28T09:15:10;12.50;51.00
64987;DHT22;67903;52.108;9.358;2023-04-28T09:17:57;12.80;50.80
64987;DHT22;67903;52.108;9.358;2023-04-28T09:20:44;13.00;50.80
64987;DHT22;67903;52.108;9.358;2023-04-28T09:23:32;12.90;50.70
64987;DHT22;67903;52.108;9.358;2023-04-28T09:26:21;13.10;50.50
64987;DHT22;67903;52.108;9.358;2023-04-28T09:29:13;13.30;50.70
64987;DHT22;67903;52.108;9.358;2023-04-28T09:32:13;13.30;50.30
64987;DHT22;67903;52.108;9.358;2023-04-28T09:35:01;13.40;50.50
64987;DHT22;67903;52.108;9.358;2023-04-28T09:37:57;13.20;50.90
64987;DHT22;67903;52.108;9.358;2023-04-28T09:43:40;13.20;51.60
64987;DHT22;67903;52.108;9.358;2023-04-28T09:46:28;13.10;51.90
64987;DHT22;67903;52.108;9.358;2023-04-28T09:49:15;13.10;51.90
64987;DHT22;67903;52.108;9.358;2023-04-28T09:52:12;13.10;51.90
64987;DHT22;67903;52.108;9.358;2023-04-28T09:55:04;13.10;51.90
64987;DHT22;67903;52.108;9.358;2023-04-28T09:57:54;12.90;52.40
64987;DHT22;67903;52.108;9.358;2023-04-28T10:00:41;12.60;53.20
64987;DHT22;67903;52.108;9.358;2023-04-28T10:03:29;12.50;53.50
64987;DHT22;67903;52.108;9.358;2023-04-28T10:06:17;12.40;54.00
64987;DHT22;67903;52.108;9.358;2023-04-28T10:09:05;12.50;54.30
64987;DHT22;67903;52.108;9.358;2023-04-28T10:11:52;12.70;53.90
64987;DHT22;67903;52.108;9.358;2023-04-28T10:14:40;12.60;54.00
64987;DHT22;67903;52.108;9.358;2023-04-28T10:17:28;12.50;54.60
64987;DHT22;67903;52.108;9.358;2023-04-28T10:20:16;12.50;54.70
64987;DHT22;67903;52.108;9.358;2023-04-28T10:30:15;13.10;56.70
64987;DHT22;67903;52.108;9.358;2023-04-28T10:36:01;13.10;57.80
64987;DHT22;67903;52.108;9.358;2023-04-28T10:39:10;13.30;57.60
64987;DHT22;67903;52.108;9.358;2023-04-28T10:41:58;13.00;57.40
64987;DHT22;67903;52.108;9.358;2023-04-28T10:44:45;13.10;58.00
64987;DHT22;67903;52.108;9.358;2023-04-28T10:47:59;13.10;57.60
64987;DHT22;67903;52.108;9.358;2023-04-28T10:56:41;13.00;57.90
64987;DHT22;67903;52.108;9.358;2023-04-28T10:59:49;13.00;58.70
64987;DHT22;67903;52.108;9.358;2023-04-28T11:02:40;13.40;59.70
64987;DHT22;67903;52.108;9.358;2023-04-28T11:05:31;13.50;60.50
64987;DHT22;67903;52.108;9.358;2023-04-28T11:08:30;13.70;61.10
64987;DHT22;67903;52.108;9.358;2023-04-28T11:11:38;13.90;60.90
64987;DHT22;67903;52.108;9.358;2023-04-28T11:17:38;13.90;61.30
64987;DHT22;67903;52.108;9.358;2023-04-28T11:20:26;13.70;62.00
64987;DHT22;67903;52.108;9.358;2023-04-28T11:23:14;13.60;62.80
64987;DHT22;67903;52.108;9.358;2023-04-28T11:26:01;13.70;62.90
64987;DHT22;67903;52.108;9.358;2023-04-28T11:28:50;13.40;63.20
64987;DHT22;67903;52.108;9.358;2023-04-28T11:31:37;13.50;63.20
64987;DHT22;67903;52.108;9.358;2023-04-28T11:34:24;13.50;63.80
64987;DHT22;67903;52.108;9.358;2023-04-28T11:37:14;13.60;64.60
64987;DHT22;67903;52.108;9.358;2023-04-28T11:40:12;13.70;64.60
64987;DHT22;67903;52.108;9.358;2023-04-28T11:42:59;13.50;65.10
64987;DHT22;67903;52.108;9.358;2023-04-28T11:45:47;13.30;66.20
64987;DHT22;67903;52.108;9.358;2023-04-28T11:48:35;13.30;66.40
64987;DHT22;67903;52.108;9.358;2023-04-28T11:51:29;13.40;66.30
64987;DHT22;67903;52.108;9.358;2023-04-28T11:54:24;13.30;66.50
64987;DHT22;67903;52.108;9.358;2023-04-28T11:57:19;13.10;67.20
64987;DHT22;67903;52.108;9.358;2023-04-28T12:00:13;13.30;66.90
64987;DHT22;67903;52.108;9.358;2023-04-28T12:03:07;13.40;66.60
64987;DHT22;67903;52.108;9.358;2023-04-28T12:05:55;13.10;67.50
64987;DHT22;67903;52.108;9.358;2023-04-28T12:08:43;13.10;67.10
64987;DHT22;67903;52.108;9.358;2023-04-28T12:11:30;12.90;67.50
64987;DHT22;67903;52.108;9.358;2023-04-28T12:14:17;13.00;67.50
64987;DHT22;67903;52.108;9.358;2023-04-28T12:17:04;13.10;67.30
64987;DHT22;67903;52.108;9.358;2023-04-28T12:19:55;13.10;67.00
64987;DHT22;67903;52.108;9.358;2023-04-28T12:22:51;13.00;67.10
64987;DHT22;67903;52.108;9.358;2023-04-28T12:25:44;12.80;67.20
64987;DHT22;67903;52.108;9.358;2023-04-28T12:28:38;13.10;67.20
64987;DHT22;67903;52.108;9.358;2023-04-28T12:31:26;13.20;66.70
64987;DHT22;67903;52.108;9.358;2023-04-28T12:34:13;13.30;66.50
64987;DHT22;67903;52.108;9.358;2023-04-28T12:37:01;13.10;66.40
64987;DHT22;67903;52.108;9.358;2023-04-28T12:39:48;13.30;66.50
64987;DHT22;67903;52.108;9.358;2023-04-28T12:42:36;13.50;66.50
64987;DHT22;67903;52.108;9.358;2023-04-28T12:45:23;13.60;65.90
64987;DHT22;67903;52.108;9.358;2023-04-28T12:48:10;14.10;65.20
64987;DHT22;67903;52.108;9.358;2023-04-28T12:50:57;14.40;64.20
64987;DHT22;67903;52.108;9.358;2023-04-28T12:53:44;14.60;63.40
64987;DHT22;67903;52.108;9.358;2023-04-28T12:56:31;14.80;63.30
64987;DHT22;67903;52.108;9.358;2023-04-28T12:59:18;14.90;63.00
64987;DHT22;67903;52.108;9.358;2023-04-28T13:02:06;14.80;62.70
64987;DHT22;67903;52.108;9.358;2023-04-28T13:04:53;14.60;63.30
64987;DHT22;67903;52.108;9.358;2023-04-28T13:07:40;14.40;64.20
64987;DHT22;67903;52.108;9.358;2023-04-28T13:10:27;14.70;64.00
64987;DHT22;67903;52.108;9.358;2023-04-28T13:13:15;15.00;63.70
64987;DHT22;67903;52.108;9.358;2023-04-28T13:16:02;14.80;63.70
64987;DHT22;67903;52.108;9.358;2023-04-28T13:18:50;14.70;63.70
64987;DHT22;67903;52.108;9.358;2023-04-28T13:21:38;14.50;64.00
64987;DHT22;67903;52.108;9.358;2023-04-28T13:24:27;14.60;64.20
64987;DHT22;67903;52.108;9.358;2023-04-28T13:27:14;14.80;63.70
64987;DHT22;67903;52.108;9.358;2023-04-28T13:30:01;14.90;64.00
64987;DHT22;67903;52.108;9.358;2023-04-28T13:32:51;15.10;63.00
64987;DHT22;67903;52.108;9.358;2023-04-28T13:35:38;15.20;63.20
64987;DHT22;67903;52.108;9.358;2023-04-28T13:38:25;15.10;62.40
64987;DHT22;67903;52.108;9.358;2023-04-28T13:41:13;15.00;62.70
64987;DHT22;67903;52.108;9.358;2023-04-28T13:44:00;15.00;62.90
64987;DHT22;67903;52.108;9.358;2023-04-28T13:46:47;15.00;62.90
64987;DHT22;67903;52.108;9.358;2023-04-28T13:49:34;14.60;63.80
64987;DHT22;67903;52.108;9.358;2023-04-28T13:52:23;14.70;63.80
64987;DHT22;67903;52.108;9.358;2023-04-28T13:55:10;15.00;63.30
64987;DHT22;67903;52.108;9.358;2023-04-28T13:57:57;15.30;62.40
64987;DHT22;67903;52.108;9.358;2023-04-28T14:00:48;15.60;61.80
64987;DHT22;67903;52.108;9.358;2023-04-28T14:03:35;15.60;61.70
64987;DHT22;67903;52.108;9.358;2023-04-28T14:06:23;15.50;61.60
64987;DHT22;67903;52.108;9.358;2023-04-28T14:09:10;15.60;61.30
64987;DHT22;67903;52.108;9.358;2023-04-28T14:11:57;15.60;61.60
64987;DHT22;67903;52.108;9.358;2023-04-28T14:14:46;16.00;60.40
64987;DHT22;67903;52.108;9.358;2023-04-28T14:17:33;16.00;60.50
64987;DHT22;67903;52.108;9.358;2023-04-28T14:20:21;16.10;60.60
64987;DHT22;67903;52.108;9.358;2023-04-28T14:23:08;16.60;59.70
64987;DHT22;67903;52.108;9.358;2023-04-28T14:25:55;16.90;58.70
64987;DHT22;67903;52.108;9.358;2023-04-28T14:28:43;16.90;58.80
64987;DHT22;67903;52.108;9.358;2023-04-28T14:31:30;16.30;59.90
64987;DHT22;67903;52.108;9.358;2023-04-28T14:34:18;16.00;60.60
64987;DHT22;67903;52.108;9.358;2023-04-28T14:37:05;16.00;60.80
64987;DHT22;67903;52.108;9.358;2023-04-28T14:39:52;15.90;60.90
64987;DHT22;67903;52.108;9.358;2023-04-28T14:42:39;15.80;61.20
64987;DHT22;67903;52.108;9.358;2023-04-28T14:45:26;15.40;62.20
64987;DHT22;67903;52.108;9.358;2023-04-28T14:48:13;15.80;62.10
64987;DHT22;67903;52.108;9.358;2023-04-28T14:51:01;16.50;59.90
64987;DHT22;67903;52.108;9.358;2023-04-28T14:53:48;16.80;59.30
64987;DHT22;67903;52.108;9.358;2023-04-28T14:56:35;16.60;59.80
64987;DHT22;67903;52.108;9.358;2023-04-28T14:59:22;16.10;60.40
64987;DHT22;67903;52.108;9.358;2023-04-28T15:02:09;16.00;60.70
64987;DHT22;67903;52.108;9.358;2023-04-28T15:04:57;16.00;60.70
64987;DHT22;67903;52.108;9.358;2023-04-28T15:07:44;15.80;60.80
64987;DHT22;67903;52.108;9.358;2023-04-28T15:10:37;15.60;61.60
64987;DHT22;67903;52.108;9.358;2023-04-28T15:13:24;15.40;62.20
64987;DHT22;67903;52.108;9.358;2023-04-28T15:16:13;15.30;62.70
64987;DHT22;67903;52.108;9.358;2023-04-28T15:19:00;15.30;62.50
64987;DHT22;67903;52.108;9.358;2023-04-28T15:21:47;15.00;63.40
64987;DHT22;67903;52.108;9.358;2023-04-28T15:24:34;15.00;63.90
64987;DHT22;67903;52.108;9.358;2023-04-28T15:27:22;15.40;63.20
64987;DHT22;67903;52.108;9.358;2023-04-28T15:30:10;15.80;62.50
64987;DHT22;67903;52.108;9.358;2023-04-28T15:32:57;16.00;61.50
64987;DHT22;67903;52.108;9.358;2023-04-28T15:35:44;16.10;61.30
64987;DHT22;67903;52.108;9.358;2023-04-28T15:38:32;15.90;61.20
64987;DHT22;67903;52.108;9.358;2023-04-28T15:41:19;15.60;62.00
64987;DHT22;67903;52.108;9.358;2023-04-28T15:44:06;15.50;62.50
64987;DHT22;67903;52.108;9.358;2023-04-28T15:46:55;15.60;62.30
64987;DHT22;67903;52.108;9.358;2023-04-28T15:49:42;15.60;62.70
64987;DHT22;67903;52.108;9.358;2023-04-28T15:52:29;15.50;62.70
64987;DHT22;67903;52.108;9.358;2023-04-28T15:55:19;15.30;63.30
64987;DHT22;67903;52.108;9.358;2023-04-28T15:58:06;15.20;63.60
64987;DHT22;67903;52.108;9.358;2023-04-28T16:00:55;15.00;64.00
64987;DHT22;67903;52.108;9.358;2023-04-28T16:03:45;15.00;64.20
64987;DHT22;67903;52.108;9.358;2023-04-28T16:06:34;15.10;64.20
64987;DHT22;67903;52.108;9.358;2023-04-28T16:09:21;15.00;64.30
64987;DHT22;67903;52.108;9.358;2023-04-28T16:12:08;14.80;64.80
64987;DHT22;67903;52.108;9.358;2023-04-28T16:14:55;14.70;65.60
64987;DHT22;67903;52.108;9.358;2023-04-28T16:17:42;14.80;65.50
64987;DHT22;67903;52.108;9.358;2023-04-28T16:20:30;14.80;65.70
64987;DHT22;67903;52.108;9.358;2023-04-28T16:23:17;14.70;66.10
64987;DHT22;67903;52.108;9.358;2023-04-28T16:26:06;14.70;66.30
64987;DHT22;67903;52.108;9.358;2023-04-28T16:28:53;14.60;66.60
64987;DHT22;67903;52.108;9.358;2023-04-28T16:31:40;14.70;66.80
64987;DHT22;67903;52.108;9.358;2023-04-28T16:34:27;14.70;66.70
64987;DHT22;67903;52.108;9.358;2023-04-28T16:37:14;14.60;66.80
64987;DHT22;67903;52.108;9.358;2023-04-28T16:40:01;14.60;66.90
64987;DHT22;67903;52.108;9.358;2023-04-28T16:42:49;14.80;66.40
64987;DHT22;67903;52.108;9.358;2023-04-28T16:45:36;14.90;66.20
64987;DHT22;67903;52.108;9.358;2023-04-28T16:48:23;14.90;66.00
64987;DHT22;67903;52.108;9.358;2023-04-28T16:51:10;15.00;65.50
64987;DHT22;67903;52.108;9.358;2023-04-28T16:53:58;14.90;65.90
64987;DHT22;67903;52.108;9.358;2023-04-28T16:56:45;14.90;65.90
64987;DHT22;67903;52.108;9.358;2023-04-28T16:59:32;14.80;66.20
64987;DHT22;67903;52.108;9.358;2023-04-28T17:02:19;14.70;66.50
64987;DHT22;67903;52.108;9.358;2023-04-28T17:05:08;14.70;66.60
64987;DHT22;67903;52.108;9.358;2023-04-28T17:07:55;14.60;66.90
64987;DHT22;67903;52.108;9.358;2023-04-28T17:10:43;14.50;67.20
64987;DHT22;67903;52.108;9.358;2023-04-28T17:13:34;14.50;68.00
64987;DHT22;67903;52.108;9.358;2023-04-28T17:16:21;14.40;69.00
64987;DHT22;67903;52.108;9.358;2023-04-28T17:19:09;14.30;69.70
64987;DHT22;67903;52.108;9.358;2023-04-28T17:21:57;14.30;70.50
64987;DHT22;67903;52.108;9.358;2023-04-28T17:24:44;14.20;71.10
64987;DHT22;67903;52.108;9.358;2023-04-28T17:27:31;14.20;71.70
64987;DHT22;67903;52.108;9.358;2023-04-28T17:30:18;14.10;72.40
64987;DHT22;67903;52.108;9.358;2023-04-28T17:33:05;13.90;73.00
64987;DHT22;67903;52.108;9.358;2023-04-28T17:35:53;13.90;74.30
64987;DHT22;67903;52.108;9.358;2023-04-28T17:38:40;13.70;75.50
64987;DHT22;67903;52.108;9.358;2023-04-28T17:41:27;13.70;75.00
64987;DHT22;67903;52.108;9.358;2023-04-28T17:44:14;13.70;74.40
64987;DHT22;67903;52.108;9.358;2023-04-28T17:47:01;13.80;74.30
64987;DHT22;67903;52.108;9.358;2023-04-28T17:49:49;13.70;74.30
64987;DHT22;67903;52.108;9.358;2023-04-28T17:52:36;13.70;74.30
64987;DHT22;67903;52.108;9.358;2023-04-28T17:55:23;13.70;74.20
64987;DHT22;67903;52.108;9.358;2023-04-28T17:58:10;13.70;73.90
64987;DHT22;67903;52.108;9.358;2023-04-28T18:01:05;13.80;73.90
64987;DHT22;67903;52.108;9.358;2023-04-28T18:03:53;13.80;73.90
64987;DHT22;67903;52.108;9.358;2023-04-28T18:06:41;13.70;73.90
64987;DHT22;67903;52.108;9.358;2023-04-28T18:09:28;13.70;74.00
64987;DHT22;67903;52.108;9.358;2023-04-28T18:12:17;13.60;74.40